Terminal Aerodrome Forecast
Issued by NWS Pittsburgh, PA

Current Version | Previous Version | Graphics & Text | Print | Product List | Glossary On
Versions: 1 2 3 4 5 6 7 8 9 10 11 12 13 14 15 16 17 18 19 20 21 22 23 24 25 26 27 28 29 30 31 32 33 34
000
FTUS41 KPBZ 261738
TAFPIT
TAF
KPIT 261738Z 2618/2724 28012KT P6SM OVC025
     FM262000 28012KT P6SM BKN035
     FM270200 VRB04KT P6SM BKN250
     FM270700 12003KT P6SM VCTS BKN050CB
     FM271100 11003KT P6SM VCSH BKN008
     FM271900 27003KT P6SM BKN040=

USA.gov is the U.S. government's official web portal to all federal, state and local government web resources and services.